createdAt,value
2022-10-17T00:03:50.681Z,14.70
2022-10-17T00:08:54.267Z,16.70
2022-10-17T00:13:57.936Z,14.80
2022-10-17T00:19:01.607Z,14.70
2022-10-17T00:24:06.067Z,21.30
2022-10-17T00:29:09.552Z,49.30
2022-10-17T00:34:12.878Z,83.30
2022-10-17T00:39:16.290Z,72.30
2022-10-17T00:44:31.689Z,62.10
2022-10-17T00:49:38.886Z,39.80
2022-10-17T00:54:49.263Z,39.10
2022-10-17T00:59:57.600Z,36.30
2022-10-17T01:13:34.448Z,47.10
2022-10-17T01:18:57.746Z,57.80
2022-10-17T01:24:54.415Z,40.50
2022-10-17T01:30:29.849Z,46.30
2022-10-17T01:35:52.617Z,36.20
2022-10-17T01:41:14.780Z,29.40
2022-10-17T01:46:36.414Z,17.90
2022-10-17T01:52:11.472Z,17.50
2022-10-17T01:57:36.254Z,17.10
2022-10-17T02:02:41.114Z,42.40
2022-10-17T02:07:44.443Z,77.20
2022-10-17T02:13:09.442Z,49.30
2022-10-17T02:18:49.846Z,33.80
2022-10-17T02:24:25.900Z,31.70
2022-10-17T02:29:38.657Z,31.60
2022-10-17T02:34:48.622Z,43.00
2022-10-17T02:39:53.981Z,40.80
2022-10-17T02:45:01.791Z,44.90
2022-10-17T02:50:07.026Z,59.00
2022-10-17T02:55:19.893Z,76.40
2022-10-17T03:00:26.187Z,31.80
2022-10-17T03:05:30.413Z,29.50
2022-10-17T03:10:33.692Z,31.80
2022-10-17T03:15:37.094Z,32.00
2022-10-17T03:20:40.546Z,24.80
2022-10-17T03:25:43.862Z,28.70
2022-10-17T03:30:47.153Z,37.20
2022-10-17T03:40:58.815Z,36.80
2022-10-17T03:46:02.735Z,45.50
2022-10-17T03:51:09.842Z,25.40
2022-10-17T03:56:19.921Z,24.00
2022-10-17T04:01:24.457Z,21.80
2022-10-17T04:06:27.757Z,25.40
2022-10-17T04:11:31.096Z,20.10
2022-10-17T04:16:34.583Z,11.00
2022-10-17T04:21:38.220Z,14.60
2022-10-17T04:26:41.521Z,14.20
2022-10-17T04:31:45.038Z,17.90
2022-10-17T04:36:48.649Z,16.80
2022-10-17T04:41:51.934Z,35.60
2022-10-17T04:46:55.203Z,89.40
2022-10-17T04:51:58.483Z,50.40
2022-10-17T04:57:01.809Z,19.20
2022-10-17T05:02:05.175Z,15.40
2022-10-17T05:07:08.725Z,12.70
2022-10-17T05:12:12.280Z,13.30
2022-10-17T05:17:15.939Z,17.30
2022-10-17T05:22:19.182Z,21.70
2022-10-17T05:27:22.417Z,27.40
2022-10-17T05:32:25.717Z,30.20
2022-10-17T05:37:31.123Z,31.70
2022-10-17T05:50:46.482Z,19.30
2022-10-17T05:56:00.971Z,18.10
2022-10-17T06:01:09.415Z,16.10
2022-10-17T06:06:16.821Z,15.70
2022-10-17T06:11:20.440Z,19.10
2022-10-17T06:16:25.647Z,14.60
2022-10-17T06:21:31.741Z,13.30
2022-10-17T06:26:36.247Z,10.80
2022-10-17T06:31:39.752Z,13.40
2022-10-17T06:36:43.604Z,15.50
2022-10-17T06:41:46.958Z,15.50
2022-10-17T06:46:50.369Z,15.20
2022-10-17T06:51:54.219Z,11.90
2022-10-17T06:56:57.546Z,18.50
2022-10-17T07:02:05.629Z,16.20
2022-10-17T07:07:08.839Z,15.00
2022-10-17T07:12:13.078Z,15.80
2022-10-17T07:17:18.230Z,17.70
2022-10-17T07:22:21.646Z,18.90
2022-10-17T07:27:24.938Z,16.20
2022-10-17T07:32:28.266Z,14.10
2022-10-17T07:37:31.992Z,16.20
2022-10-17T07:47:43.736Z,15.00
2022-10-17T07:52:47.042Z,15.70
2022-10-17T07:57:50.355Z,16.20
2022-10-17T08:02:53.633Z,16.00
2022-10-17T08:07:56.945Z,17.70
2022-10-17T08:13:00.394Z,17.00
2022-10-17T08:18:03.742Z,17.00
2022-10-17T08:23:07.220Z,23.70
2022-10-17T08:28:10.476Z,17.40
2022-10-17T08:33:14.070Z,17.10
2022-10-17T08:38:20.925Z,13.60
2022-10-17T08:43:59.589Z,14.10
2022-10-17T08:49:13.441Z,11.80
2022-10-17T08:54:39.792Z,13.00
2022-10-17T08:59:46.106Z,17.30
2022-10-17T09:05:26.894Z,14.40
2022-10-17T09:10:50.870Z,14.00
2022-10-17T09:16:16.799Z,17.30
2022-10-17T09:21:32.609Z,16.50
2022-10-17T09:26:36.184Z,15.70
2022-10-17T09:32:19.879Z,12.80
2022-10-17T09:37:33.330Z,15.00
2022-10-17T09:42:37.735Z,15.20
2022-10-17T09:48:19.280Z,12.20
2022-10-17T09:53:38.260Z,14.30
2022-10-17T09:58:55.801Z,10.10
2022-10-17T10:04:10.167Z,7.40
2022-10-17T10:09:27.438Z,7.10
2022-10-17T10:14:39.897Z,6.40
2022-10-17T10:19:51.348Z,5.60
2022-10-17T10:25:18.002Z,6.40
2022-10-17T10:30:36.116Z,7.00
2022-10-17T10:35:42.585Z,5.80
2022-10-17T10:40:57.094Z,7.20
2022-10-17T10:46:01.701Z,6.80
2022-10-17T10:51:14.900Z,6.40
2022-10-17T10:56:25.786Z,6.20
2022-10-17T11:01:37.799Z,7.00
2022-10-17T11:06:45.298Z,6.00
2022-10-17T11:12:13.681Z,6.10
2022-10-17T11:17:36.890Z,6.60
2022-10-17T11:22:47.470Z,6.50
2022-10-17T11:27:50.985Z,8.60
2022-10-17T11:33:00.959Z,9.80
2022-10-17T11:38:45.314Z,10.00
2022-10-17T11:43:56.809Z,7.90
2022-10-17T11:49:20.609Z,7.90
2022-10-17T11:54:44.415Z,7.60
2022-10-17T12:00:37.972Z,8.10
2022-10-17T12:05:59.403Z,7.90
2022-10-17T12:11:16.519Z,9.90
2022-10-17T12:16:22.552Z,8.40
2022-10-17T12:21:29.730Z,10.10
2022-10-17T12:26:34.701Z,8.80
2022-10-17T12:31:38.218Z,12.50
2022-10-17T12:36:42.446Z,10.30
2022-10-17T12:41:46.788Z,10.90
2022-10-17T12:46:52.154Z,11.80
2022-10-17T12:52:23.623Z,11.80
2022-10-17T12:57:54.851Z,13.60
2022-10-17T13:03:16.644Z,15.60
2022-10-17T13:08:37.456Z,14.60
2022-10-17T13:13:52.440Z,15.20
2022-10-17T13:18:56.801Z,14.00
2022-10-17T13:24:01.400Z,14.70
2022-10-17T13:29:14.966Z,14.90
2022-10-17T13:34:25.380Z,14.30
2022-10-17T13:39:58.158Z,16.60
2022-10-17T13:45:05.095Z,17.00
2022-10-17T13:50:39.429Z,17.40
2022-10-17T13:55:38.289Z,18.50
2022-10-17T14:00:42.145Z,19.60
2022-10-17T14:06:11.569Z,19.40
2022-10-17T14:11:30.002Z,23.20
2022-10-17T14:16:42.635Z,18.90
2022-10-17T14:21:49.854Z,21.40
2022-10-17T14:27:00.969Z,25.10
2022-10-17T14:32:13.353Z,22.20
2022-10-17T14:37:57.439Z,26.70
2022-10-17T14:43:06.264Z,30.80
2022-10-17T14:48:19.923Z,35.50
2022-10-17T14:53:23.242Z,31.40
2022-10-17T14:58:33.175Z,26.90
2022-10-17T15:03:36.573Z,24.70
2022-10-17T15:08:40.077Z,25.40
2022-10-17T15:13:45.714Z,26.40
2022-10-17T15:18:50.233Z,23.30
2022-10-17T15:23:53.545Z,24.80
2022-10-17T15:28:56.834Z,25.70
2022-10-17T15:34:00.157Z,23.70
2022-10-17T15:39:03.790Z,25.70
2022-10-17T15:44:07.289Z,25.00
2022-10-17T15:49:17.474Z,26.50
2022-10-17T15:54:20.793Z,29.30
2022-10-17T15:59:32.696Z,29.20
2022-10-17T16:04:36.112Z,27.80
2022-10-17T16:09:39.898Z,31.50
2022-10-17T16:14:43.367Z,27.20
2022-10-17T16:19:46.870Z,28.60
2022-10-17T16:24:50.202Z,31.10
2022-10-17T16:29:53.722Z,33.30
2022-10-17T16:34:57.515Z,31.50
2022-10-17T16:40:00.883Z,32.40
2022-10-17T16:45:05.536Z,34.90
2022-10-17T16:50:10.022Z,31.70
2022-10-17T16:55:13.642Z,30.40
2022-10-17T17:00:18.290Z,30.20
2022-10-17T17:05:21.638Z,28.80
2022-10-17T17:10:24.979Z,29.40
2022-10-17T17:15:28.415Z,22.40
2022-10-17T17:20:33.881Z,21.90
2022-10-17T17:25:39.741Z,27.60
2022-10-17T17:30:43.162Z,24.40
2022-10-17T17:35:46.466Z,37.80
2022-10-17T17:40:51.365Z,23.60
2022-10-17T17:45:54.947Z,26.40
2022-10-17T17:51:02.867Z,22.60
2022-10-17T17:56:16.714Z,31.60
2022-10-17T18:01:23.789Z,22.00
2022-10-17T18:06:28.949Z,25.70
2022-10-17T18:11:32.902Z,24.20
2022-10-17T18:16:37.955Z,21.80
2022-10-17T18:21:41.366Z,24.50
2022-10-17T18:26:44.612Z,22.80
2022-10-17T18:31:47.993Z,26.50
2022-10-17T18:36:53.105Z,25.10
2022-10-17T18:41:57.139Z,27.00
2022-10-17T18:47:03.847Z,23.20
2022-10-17T18:52:07.902Z,22.20
2022-10-17T18:57:11.611Z,24.20
2022-10-17T19:02:14.978Z,25.20
2022-10-17T19:07:20.306Z,25.50
2022-10-17T19:12:23.692Z,22.50
2022-10-17T19:17:27.187Z,22.00
2022-10-17T19:22:31.547Z,21.00
2022-10-17T19:27:34.959Z,21.20
2022-10-17T19:32:38.996Z,27.00
2022-10-17T19:37:42.405Z,24.00
2022-10-17T19:42:45.712Z,23.10
2022-10-17T19:47:49.125Z,20.00
2022-10-17T19:52:52.436Z,24.40
2022-10-17T19:57:56.158Z,16.40
2022-10-17T20:02:59.454Z,21.30
2022-10-17T20:08:03.156Z,20.60
2022-10-17T20:13:06.607Z,21.10
2022-10-17T20:18:10.525Z,21.90
2022-10-17T20:23:13.843Z,19.80
2022-10-17T20:28:17.266Z,19.30
2022-10-17T20:33:21.337Z,19.20
2022-10-17T20:38:25.009Z,25.10
2022-10-17T20:43:28.422Z,14.30
2022-10-17T20:48:31.930Z,19.50
2022-10-17T20:53:37.517Z,22.90
2022-10-17T20:58:41.425Z,21.00
2022-10-17T21:03:46.575Z,19.20
2022-10-17T21:08:54.457Z,24.40
2022-10-17T21:14:04.914Z,21.30
2022-10-17T21:19:10.980Z,19.20
2022-10-17T21:24:21.060Z,21.00
2022-10-17T21:29:24.958Z,22.80
2022-10-17T21:34:29.047Z,16.20
2022-10-17T21:39:32.848Z,21.10
2022-10-17T21:44:36.519Z,21.70
2022-10-17T21:49:40.087Z,21.80
2022-10-17T21:54:43.773Z,16.30
2022-10-17T21:59:47.076Z,17.80
2022-10-17T22:04:50.386Z,19.70
2022-10-17T22:09:53.904Z,18.70
2022-10-17T22:14:57.209Z,20.80
2022-10-17T22:20:00.756Z,15.00
2022-10-17T22:25:04.985Z,21.40
2022-10-17T22:30:09.833Z,16.40
2022-10-17T22:35:13.789Z,22.10
2022-10-17T22:40:17.279Z,21.40
2022-10-17T22:45:20.667Z,21.80
2022-10-17T22:50:24.901Z,15.60
2022-10-17T22:55:28.412Z,20.30
2022-10-17T23:00:31.826Z,22.20
2022-10-17T23:05:35.244Z,20.20
2022-10-17T23:10:38.998Z,24.30
2022-10-17T23:15:42.952Z,22.70
2022-10-17T23:20:46.713Z,20.60
2022-10-17T23:25:51.639Z,21.50
2022-10-17T23:30:54.972Z,19.70
2022-10-17T23:35:58.211Z,22.00
2022-10-17T23:41:01.491Z,23.00
2022-10-17T23:46:07.118Z,19.70
2022-10-17T23:51:11.324Z,20.70
2022-10-17T23:56:15.290Z,24.20
